sensor_id;sensor_type;location;lat;lon;timestamp;P1;durP1;ratioP1;P2;durP2;ratioP2
33844;SDS011;20145;43.118;25.694;2022-09-09T00:10:32;4.90;;;3.00;;
33844;SDS011;20145;43.118;25.694;2022-09-09T00:15:20;6.75;;;3.10;;
33844;SDS011;20145;43.118;25.694;2022-09-09T00:18:00;4.43;;;3.65;;
33844;SDS011;20145;43.118;25.694;2022-09-09T00:23:26;6.28;;;2.90;;
33844;SDS011;20145;43.118;25.694;2022-09-09T00:25:59;3.85;;;2.83;;
33844;SDS011;20145;43.118;25.694;2022-09-09T00:28:55;4.65;;;3.47;;
33844;SDS011;20145;43.118;25.694;2022-09-09T00:31:29;7.78;;;3.53;;
33844;SDS011;20145;43.118;25.694;2022-09-09T00:34:09;6.37;;;3.20;;
33844;SDS011;20145;43.118;25.694;2022-09-09T00:36:38;4.05;;;3.15;;
33844;SDS011;20145;43.118;25.694;2022-09-09T00:39:05;6.68;;;3.47;;
33844;SDS011;20145;43.118;25.694;2022-09-09T00:41:44;4.55;;;2.65;;
33844;SDS011;20145;43.118;25.694;2022-09-09T00:44:39;10.15;;;4.55;;
33844;SDS011;20145;43.118;25.694;2022-09-09T00:53:05;4.88;;;3.47;;
33844;SDS011;20145;43.118;25.694;2022-09-09T00:58:06;4.85;;;4.00;;
33844;SDS011;20145;43.118;25.694;2022-09-09T01:06:20;5.72;;;3.72;;
33844;SDS011;20145;43.118;25.694;2022-09-09T01:11:55;10.15;;;3.13;;
33844;SDS011;20145;43.118;25.694;2022-09-09T01:17:02;6.03;;;3.78;;
33844;SDS011;20145;43.118;25.694;2022-09-09T01:22:35;3.92;;;3.30;;
33844;SDS011;20145;43.118;25.694;2022-09-09T01:25:12;9.40;;;4.05;;
33844;SDS011;20145;43.118;25.694;2022-09-09T01:27:54;3.95;;;3.28;;
33844;SDS011;20145;43.118;25.694;2022-09-09T01:30:23;4.85;;;3.65;;
33844;SDS011;20145;43.118;25.694;2022-09-09T01:32:53;6.10;;;3.47;;
33844;SDS011;20145;43.118;25.694;2022-09-09T01:37:55;4.38;;;3.53;;
33844;SDS011;20145;43.118;25.694;2022-09-09T01:40:21;9.48;;;3.40;;
33844;SDS011;20145;43.118;25.694;2022-09-09T01:42:47;9.00;;;3.50;;
33844;SDS011;20145;43.118;25.694;2022-09-09T01:45:13;5.78;;;3.40;;
33844;SDS011;20145;43.118;25.694;2022-09-09T01:47:39;6.45;;;2.92;;
33844;SDS011;20145;43.118;25.694;2022-09-09T01:50:05;3.28;;;2.97;;
33844;SDS011;20145;43.118;25.694;2022-09-09T01:52:33;6.35;;;3.42;;
33844;SDS011;20145;43.118;25.694;2022-09-09T01:55:01;7.50;;;3.05;;
33844;SDS011;20145;43.118;25.694;2022-09-09T02:05:44;5.25;;;3.00;;
33844;SDS011;20145;43.118;25.694;2022-09-09T02:08:36;4.00;;;3.43;;
33844;SDS011;20145;43.118;25.694;2022-09-09T02:11:13;4.38;;;3.20;;
33844;SDS011;20145;43.118;25.694;2022-09-09T02:13:40;3.58;;;3.08;;
33844;SDS011;20145;43.118;25.694;2022-09-09T02:18:42;4.97;;;3.00;;
33844;SDS011;20145;43.118;25.694;2022-09-09T02:23:44;7.70;;;3.40;;
33844;SDS011;20145;43.118;25.694;2022-09-09T02:26:13;4.65;;;2.97;;
33844;SDS011;20145;43.118;25.694;2022-09-09T02:28:45;3.72;;;2.55;;
33844;SDS011;20145;43.118;25.694;2022-09-09T02:31:14;5.18;;;3.15;;
33844;SDS011;20145;43.118;25.694;2022-09-09T02:33:45;2.90;;;2.60;;
33844;SDS011;20145;43.118;25.694;2022-09-09T02:36:16;3.35;;;2.88;;
33844;SDS011;20145;43.118;25.694;2022-09-09T02:38:45;7.18;;;3.00;;
33844;SDS011;20145;43.118;25.694;2022-09-09T02:41:23;5.60;;;3.08;;
33844;SDS011;20145;43.118;25.694;2022-09-09T02:43:52;5.70;;;3.20;;
33844;SDS011;20145;43.118;25.694;2022-09-09T02:52:07;4.20;;;3.40;;
33844;SDS011;20145;43.118;25.694;2022-09-09T02:54:40;13.93;;;3.97;;
33844;SDS011;20145;43.118;25.694;2022-09-09T02:59:36;8.35;;;3.25;;
33844;SDS011;20145;43.118;25.694;2022-09-09T03:02:03;4.35;;;3.47;;
33844;SDS011;20145;43.118;25.694;2022-09-09T03:04:29;3.53;;;3.10;;
33844;SDS011;20145;43.118;25.694;2022-09-09T03:06:56;4.93;;;3.08;;
33844;SDS011;20145;43.118;25.694;2022-09-09T03:09:23;4.22;;;3.20;;
33844;SDS011;20145;43.118;25.694;2022-09-09T03:11:49;6.45;;;3.13;;
33844;SDS011;20145;43.118;25.694;2022-09-09T03:14:15;6.72;;;3.75;;
33844;SDS011;20145;43.118;25.694;2022-09-09T03:16:41;4.95;;;3.08;;
33844;SDS011;20145;43.118;25.694;2022-09-09T03:19:08;6.90;;;3.30;;
33844;SDS011;20145;43.118;25.694;2022-09-09T03:21:34;5.57;;;3.60;;
33844;SDS011;20145;43.118;25.694;2022-09-09T03:24:01;4.45;;;3.42;;
33844;SDS011;20145;43.118;25.694;2022-09-09T03:26:28;4.00;;;3.15;;
33844;SDS011;20145;43.118;25.694;2022-09-09T03:28:55;5.13;;;3.30;;
33844;SDS011;20145;43.118;25.694;2022-09-09T03:31:21;4.22;;;3.08;;
33844;SDS011;20145;43.118;25.694;2022-09-09T03:33:47;3.65;;;3.10;;
33844;SDS011;20145;43.118;25.694;2022-09-09T03:36:13;5.82;;;3.97;;
33844;SDS011;20145;43.118;25.694;2022-09-09T03:38:39;4.93;;;3.63;;
33844;SDS011;20145;43.118;25.694;2022-09-09T03:41:05;6.13;;;3.28;;
33844;SDS011;20145;43.118;25.694;2022-09-09T03:43:30;7.13;;;3.45;;
33844;SDS011;20145;43.118;25.694;2022-09-09T03:45:56;4.53;;;3.08;;
33844;SDS011;20145;43.118;25.694;2022-09-09T03:48:22;4.18;;;3.25;;
33844;SDS011;20145;43.118;25.694;2022-09-09T03:50:49;5.75;;;3.28;;
33844;SDS011;20145;43.118;25.694;2022-09-09T03:53:19;5.83;;;3.13;;
33844;SDS011;20145;43.118;25.694;2022-09-09T03:55:47;6.43;;;3.28;;
33844;SDS011;20145;43.118;25.694;2022-09-09T03:58:15;8.88;;;3.90;;
33844;SDS011;20145;43.118;25.694;2022-09-09T04:00:43;6.47;;;3.42;;
33844;SDS011;20145;43.118;25.694;2022-09-09T04:03:17;5.93;;;3.92;;
33844;SDS011;20145;43.118;25.694;2022-09-09T04:05:43;3.42;;;3.13;;
33844;SDS011;20145;43.118;25.694;2022-09-09T04:08:09;7.15;;;3.33;;
33844;SDS011;20145;43.118;25.694;2022-09-09T04:10:34;4.72;;;2.92;;
33844;SDS011;20145;43.118;25.694;2022-09-09T04:13:04;9.32;;;3.53;;
33844;SDS011;20145;43.118;25.694;2022-09-09T04:15:30;6.63;;;3.40;;
33844;SDS011;20145;43.118;25.694;2022-09-09T04:17:57;4.40;;;3.10;;
33844;SDS011;20145;43.118;25.694;2022-09-09T04:20:23;8.52;;;3.90;;
33844;SDS011;20145;43.118;25.694;2022-09-09T04:22:49;5.93;;;3.75;;
33844;SDS011;20145;43.118;25.694;2022-09-09T04:25:14;10.77;;;3.20;;
33844;SDS011;20145;43.118;25.694;2022-09-09T04:27:40;7.18;;;4.38;;
33844;SDS011;20145;43.118;25.694;2022-09-09T04:30:06;6.03;;;3.40;;
33844;SDS011;20145;43.118;25.694;2022-09-09T04:32:33;12.25;;;4.32;;
33844;SDS011;20145;43.118;25.694;2022-09-09T04:34:59;4.28;;;3.30;;
33844;SDS011;20145;43.118;25.694;2022-09-09T04:37:24;5.68;;;3.60;;
33844;SDS011;20145;43.118;25.694;2022-09-09T04:39:50;6.15;;;3.33;;
33844;SDS011;20145;43.118;25.694;2022-09-09T04:42:15;6.38;;;2.88;;
33844;SDS011;20145;43.118;25.694;2022-09-09T04:44:43;10.57;;;4.03;;
33844;SDS011;20145;43.118;25.694;2022-09-09T04:47:09;8.02;;;3.53;;
33844;SDS011;20145;43.118;25.694;2022-09-09T04:49:35;12.13;;;4.40;;
33844;SDS011;20145;43.118;25.694;2022-09-09T04:52:02;8.32;;;4.53;;
33844;SDS011;20145;43.118;25.694;2022-09-09T04:54:28;5.55;;;5.05;;
33844;SDS011;20145;43.118;25.694;2022-09-09T04:56:54;12.48;;;4.95;;
33844;SDS011;20145;43.118;25.694;2022-09-09T04:59:20;17.67;;;5.50;;
33844;SDS011;20145;43.118;25.694;2022-09-09T05:01:47;10.63;;;5.30;;
33844;SDS011;20145;43.118;25.694;2022-09-09T05:04:13;11.85;;;5.40;;
33844;SDS011;20145;43.118;25.694;2022-09-09T05:06:41;14.20;;;6.28;;
33844;SDS011;20145;43.118;25.694;2022-09-09T05:09:07;11.05;;;5.72;;
33844;SDS011;20145;43.118;25.694;2022-09-09T05:11:33;13.07;;;5.93;;
33844;SDS011;20145;43.118;25.694;2022-09-09T05:14:01;17.63;;;6.47;;
33844;SDS011;20145;43.118;25.694;2022-09-09T05:16:28;13.15;;;6.90;;
33844;SDS011;20145;43.118;25.694;2022-09-09T05:18:53;21.55;;;8.30;;
33844;SDS011;20145;43.118;25.694;2022-09-09T05:21:20;14.25;;;6.80;;
33844;SDS011;20145;43.118;25.694;2022-09-09T05:23:47;27.35;;;7.55;;
33844;SDS011;20145;43.118;25.694;2022-09-09T05:26:15;13.63;;;6.03;;
33844;SDS011;20145;43.118;25.694;2022-09-09T05:28:42;18.15;;;6.45;;
33844;SDS011;20145;43.118;25.694;2022-09-09T05:31:08;13.25;;;5.70;;
33844;SDS011;20145;43.118;25.694;2022-09-09T05:33:37;13.20;;;6.22;;
33844;SDS011;20145;43.118;25.694;2022-09-09T05:36:08;7.70;;;5.10;;
33844;SDS011;20145;43.118;25.694;2022-09-09T05:38:39;12.73;;;5.68;;
33844;SDS011;20145;43.118;25.694;2022-09-09T05:41:06;10.73;;;5.05;;
33844;SDS011;20145;43.118;25.694;2022-09-09T05:43:32;12.15;;;5.00;;
33844;SDS011;20145;43.118;25.694;2022-09-09T05:46:07;13.23;;;5.50;;
33844;SDS011;20145;43.118;25.694;2022-09-09T05:48:35;11.15;;;4.70;;
33844;SDS011;20145;43.118;25.694;2022-09-09T05:51:03;11.23;;;4.50;;
33844;SDS011;20145;43.118;25.694;2022-09-09T05:53:32;10.48;;;4.45;;
33844;SDS011;20145;43.118;25.694;2022-09-09T05:56:03;8.68;;;4.68;;
33844;SDS011;20145;43.118;25.694;2022-09-09T05:58:32;11.68;;;4.80;;
33844;SDS011;20145;43.118;25.694;2022-09-09T06:03:26;7.45;;;4.50;;
33844;SDS011;20145;43.118;25.694;2022-09-09T06:05:59;5.80;;;3.95;;
33844;SDS011;20145;43.118;25.694;2022-09-09T06:08:26;6.88;;;3.33;;
33844;SDS011;20145;43.118;25.694;2022-09-09T06:10:52;7.25;;;3.47;;
33844;SDS011;20145;43.118;25.694;2022-09-09T06:13:18;9.02;;;3.70;;
33844;SDS011;20145;43.118;25.694;2022-09-09T06:15:52;7.18;;;3.90;;
33844;SDS011;20145;43.118;25.694;2022-09-09T06:18:18;6.90;;;3.20;;
33844;SDS011;20145;43.118;25.694;2022-09-09T06:21:03;7.15;;;3.53;;
33844;SDS011;20145;43.118;25.694;2022-09-09T06:23:32;7.68;;;3.38;;
33844;SDS011;20145;43.118;25.694;2022-09-09T06:26:07;4.63;;;3.35;;
33844;SDS011;20145;43.118;25.694;2022-09-09T06:28:35;9.52;;;3.47;;
33844;SDS011;20145;43.118;25.694;2022-09-09T06:31:02;12.20;;;3.47;;
33844;SDS011;20145;43.118;25.694;2022-09-09T06:33:41;8.10;;;3.47;;
33844;SDS011;20145;43.118;25.694;2022-09-09T06:36:10;4.90;;;3.53;;
33844;SDS011;20145;43.118;25.694;2022-09-09T06:38:37;6.07;;;3.27;;
33844;SDS011;20145;43.118;25.694;2022-09-09T06:41:03;6.68;;;3.28;;
33844;SDS011;20145;43.118;25.694;2022-09-09T06:43:31;5.32;;;3.30;;
33844;SDS011;20145;43.118;25.694;2022-09-09T06:45:57;7.47;;;3.00;;
33844;SDS011;20145;43.118;25.694;2022-09-09T06:48:25;6.65;;;3.05;;
33844;SDS011;20145;43.118;25.694;2022-09-09T06:51:00;6.90;;;3.60;;
33844;SDS011;20145;43.118;25.694;2022-09-09T06:53:30;7.35;;;3.33;;
33844;SDS011;20145;43.118;25.694;2022-09-09T06:55:59;5.38;;;3.40;;
33844;SDS011;20145;43.118;25.694;2022-09-09T06:58:27;10.10;;;3.20;;
33844;SDS011;20145;43.118;25.694;2022-09-09T07:01:01;7.88;;;3.15;;
33844;SDS011;20145;43.118;25.694;2022-09-09T07:03:28;5.07;;;3.20;;
33844;SDS011;20145;43.118;25.694;2022-09-09T07:05:54;6.40;;;3.45;;
33844;SDS011;20145;43.118;25.694;2022-09-09T07:08:24;4.38;;;3.10;;
33844;SDS011;20145;43.118;25.694;2022-09-09T07:10:50;7.25;;;2.90;;
33844;SDS011;20145;43.118;25.694;2022-09-09T07:13:23;4.72;;;2.95;;
33844;SDS011;20145;43.118;25.694;2022-09-09T07:15:52;5.10;;;2.72;;
33844;SDS011;20145;43.118;25.694;2022-09-09T07:18:18;4.15;;;2.95;;
33844;SDS011;20145;43.118;25.694;2022-09-09T07:20:54;4.53;;;3.05;;
33844;SDS011;20145;43.118;25.694;2022-09-09T07:23:22;3.15;;;2.53;;
33844;SDS011;20145;43.118;25.694;2022-09-09T07:25:48;6.72;;;3.30;;
33844;SDS011;20145;43.118;25.694;2022-09-09T07:28:15;5.85;;;2.83;;
33844;SDS011;20145;43.118;25.694;2022-09-09T07:30:41;6.18;;;2.60;;
33844;SDS011;20145;43.118;25.694;2022-09-09T07:33:08;5.35;;;2.60;;
33844;SDS011;20145;43.118;25.694;2022-09-09T07:35:35;6.68;;;2.60;;
33844;SDS011;20145;43.118;25.694;2022-09-09T07:38:02;4.38;;;2.40;;
33844;SDS011;20145;43.118;25.694;2022-09-09T07:40:32;6.05;;;2.85;;
33844;SDS011;20145;43.118;25.694;2022-09-09T07:43:01;4.22;;;2.35;;
33844;SDS011;20145;43.118;25.694;2022-09-09T07:45:27;3.47;;;2.22;;
33844;SDS011;20145;43.118;25.694;2022-09-09T07:47:57;4.18;;;2.72;;
33844;SDS011;20145;43.118;25.694;2022-09-09T07:50:23;2.90;;;2.60;;
33844;SDS011;20145;43.118;25.694;2022-09-09T07:52:49;5.30;;;2.90;;
33844;SDS011;20145;43.118;25.694;2022-09-09T07:55:19;10.00;;;2.83;;
33844;SDS011;20145;43.118;25.694;2022-09-09T07:57:52;3.75;;;2.50;;
33844;SDS011;20145;43.118;25.694;2022-09-09T08:00:21;5.22;;;2.40;;
33844;SDS011;20145;43.118;25.694;2022-09-09T08:02:47;4.22;;;2.75;;
33844;SDS011;20145;43.118;25.694;2022-09-09T08:05:13;2.50;;;2.30;;
33844;SDS011;20145;43.118;25.694;2022-09-09T08:07:40;3.55;;;2.30;;
33844;SDS011;20145;43.118;25.694;2022-09-09T08:10:05;4.57;;;2.58;;
33844;SDS011;20145;43.118;25.694;2022-09-09T08:12:32;4.10;;;2.67;;
33844;SDS011;20145;43.118;25.694;2022-09-09T08:14:58;4.68;;;2.30;;
33844;SDS011;20145;43.118;25.694;2022-09-09T08:17:23;7.00;;;2.85;;
33844;SDS011;20145;43.118;25.694;2022-09-09T08:19:54;4.22;;;2.55;;
33844;SDS011;20145;43.118;25.694;2022-09-09T08:22:20;3.42;;;2.63;;
33844;SDS011;20145;43.118;25.694;2022-09-09T08:24:47;6.88;;;2.75;;
33844;SDS011;20145;43.118;25.694;2022-09-09T08:27:12;4.75;;;2.70;;
33844;SDS011;20145;43.118;25.694;2022-09-09T08:29:38;4.45;;;2.25;;
33844;SDS011;20145;43.118;25.694;2022-09-09T08:32:06;4.10;;;2.40;;
33844;SDS011;20145;43.118;25.694;2022-09-09T08:34:32;7.50;;;2.70;;
33844;SDS011;20145;43.118;25.694;2022-09-09T08:36:58;5.88;;;2.63;;
33844;SDS011;20145;43.118;25.694;2022-09-09T08:39:24;6.05;;;2.97;;
33844;SDS011;20145;43.118;25.694;2022-09-09T08:53:11;4.90;;;2.63;;
33844;SDS011;20145;43.118;25.694;2022-09-09T08:55:51;4.43;;;2.70;;
33844;SDS011;20145;43.118;25.694;2022-09-09T08:58:24;11.18;;;3.13;;
33844;SDS011;20145;43.118;25.694;2022-09-09T09:04:00;3.95;;;2.70;;
33844;SDS011;20145;43.118;25.694;2022-09-09T09:11:52;5.78;;;2.58;;
33844;SDS011;20145;43.118;25.694;2022-09-09T09:14:26;3.42;;;2.70;;
33844;SDS011;20145;43.118;25.694;2022-09-09T09:19:23;2.92;;;2.17;;
33844;SDS011;20145;43.118;25.694;2022-09-09T09:21:57;6.75;;;2.30;;
33844;SDS011;20145;43.118;25.694;2022-09-09T09:27:13;8.07;;;2.33;;
33844;SDS011;20145;43.118;25.694;2022-09-09T09:29:40;4.45;;;2.47;;
33844;SDS011;20145;43.118;25.694;2022-09-09T09:32:13;4.18;;;2.58;;
33844;SDS011;20145;43.118;25.694;2022-09-09T09:34:41;5.07;;;2.75;;
33844;SDS011;20145;43.118;25.694;2022-09-09T09:37:16;5.95;;;2.85;;
33844;SDS011;20145;43.118;25.694;2022-09-09T09:39:51;3.97;;;2.33;;
33844;SDS011;20145;43.118;25.694;2022-09-09T09:42:17;5.20;;;2.70;;
33844;SDS011;20145;43.118;25.694;2022-09-09T09:44:44;3.35;;;2.55;;
33844;SDS011;20145;43.118;25.694;2022-09-09T09:47:16;7.93;;;2.72;;
33844;SDS011;20145;43.118;25.694;2022-09-09T09:49:56;4.05;;;2.42;;
33844;SDS011;20145;43.118;25.694;2022-09-09T09:52:28;7.25;;;2.72;;
33844;SDS011;20145;43.118;25.694;2022-09-09T09:54:55;2.63;;;2.38;;
33844;SDS011;20145;43.118;25.694;2022-09-09T09:57:28;4.32;;;2.80;;
33844;SDS011;20145;43.118;25.694;2022-09-09T10:00:12;7.65;;;2.75;;
33844;SDS011;20145;43.118;25.694;2022-09-09T10:02:40;7.20;;;3.13;;
33844;SDS011;20145;43.118;25.694;2022-09-09T10:05:13;4.72;;;3.00;;
33844;SDS011;20145;43.118;25.694;2022-09-09T10:07:46;5.32;;;2.50;;
33844;SDS011;20145;43.118;25.694;2022-09-09T10:10:23;6.05;;;2.72;;
33844;SDS011;20145;43.118;25.694;2022-09-09T10:13:00;9.23;;;3.10;;
33844;SDS011;20145;43.118;25.694;2022-09-09T10:15:50;7.82;;;3.17;;
33844;SDS011;20145;43.118;25.694;2022-09-09T10:40:20;6.30;;;2.75;;
33844;SDS011;20145;43.118;25.694;2022-09-09T10:45:43;5.80;;;3.03;;
33844;SDS011;20145;43.118;25.694;2022-09-09T10:59:20;5.60;;;3.55;;
33844;SDS011;20145;43.118;25.694;2022-09-09T11:04:35;13.13;;;5.72;;
33844;SDS011;20145;43.118;25.694;2022-09-09T11:13:18;7.03;;;2.58;;
33844;SDS011;20145;43.118;25.694;2022-09-09T11:24:47;6.38;;;3.03;;
33844;SDS011;20145;43.118;25.694;2022-09-09T11:30:20;8.38;;;2.70;;
33844;SDS011;20145;43.118;25.694;2022-09-09T11:35:24;4.65;;;2.47;;
33844;SDS011;20145;43.118;25.694;2022-09-09T11:40:58;7.18;;;2.53;;
33844;SDS011;20145;43.118;25.694;2022-09-09T11:43:39;4.20;;;2.20;;
33844;SDS011;20145;43.118;25.694;2022-09-09T11:46:11;6.95;;;2.67;;
33844;SDS011;20145;43.118;25.694;2022-09-09T11:48:40;4.93;;;2.70;;
33844;SDS011;20145;43.118;25.694;2022-09-09T11:53:53;4.25;;;2.70;;
33844;SDS011;20145;43.118;25.694;2022-09-09T11:56:24;6.85;;;2.70;;
33844;SDS011;20145;43.118;25.694;2022-09-09T12:01:43;6.72;;;2.45;;
33844;SDS011;20145;43.118;25.694;2022-09-09T12:06:46;6.68;;;2.70;;
33844;SDS011;20145;43.118;25.694;2022-09-09T12:09:47;4.25;;;2.67;;
33844;SDS011;20145;43.118;25.694;2022-09-09T12:12:23;9.25;;;2.70;;
33844;SDS011;20145;43.118;25.694;2022-09-09T12:17:23;7.15;;;3.33;;
33844;SDS011;20145;43.118;25.694;2022-09-09T12:20:52;6.95;;;3.08;;
33844;SDS011;20145;43.118;25.694;2022-09-09T12:28:21;9.55;;;3.25;;
33844;SDS011;20145;43.118;25.694;2022-09-09T12:31:07;4.47;;;2.67;;
33844;SDS011;20145;43.118;25.694;2022-09-09T12:33:42;4.32;;;2.53;;
33844;SDS011;20145;43.118;25.694;2022-09-09T12:36:15;5.72;;;2.70;;
33844;SDS011;20145;43.118;25.694;2022-09-09T12:38:44;7.65;;;2.97;;
33844;SDS011;20145;43.118;25.694;2022-09-09T12:43:50;6.55;;;2.70;;
33844;SDS011;20145;43.118;25.694;2022-09-09T12:46:20;6.32;;;2.95;;
33844;SDS011;20145;43.118;25.694;2022-09-09T12:48:52;6.10;;;2.80;;
33844;SDS011;20145;43.118;25.694;2022-09-09T12:51:29;3.85;;;2.70;;
33844;SDS011;20145;43.118;25.694;2022-09-09T12:53:56;6.30;;;2.90;;
33844;SDS011;20145;43.118;25.694;2022-09-09T12:56:25;6.22;;;2.95;;
33844;SDS011;20145;43.118;25.694;2022-09-09T12:58:55;6.32;;;3.08;;
33844;SDS011;20145;43.118;25.694;2022-09-09T13:01:29;5.68;;;2.83;;
33844;SDS011;20145;43.118;25.694;2022-09-09T13:03:57;5.00;;;2.70;;
33844;SDS011;20145;43.118;25.694;2022-09-09T13:06:24;4.00;;;3.03;;
33844;SDS011;20145;43.118;25.694;2022-09-09T13:08:51;7.85;;;2.72;;
33844;SDS011;20145;43.118;25.694;2022-09-09T13:11:20;12.00;;;3.17;;
33844;SDS011;20145;43.118;25.694;2022-09-09T13:13:54;10.05;;;4.28;;
33844;SDS011;20145;43.118;25.694;2022-09-09T13:16:23;4.28;;;2.83;;
33844;SDS011;20145;43.118;25.694;2022-09-09T13:18:57;5.30;;;2.80;;
33844;SDS011;20145;43.118;25.694;2022-09-09T13:21:31;4.93;;;2.85;;
33844;SDS011;20145;43.118;25.694;2022-09-09T13:24:00;8.60;;;2.55;;
33844;SDS011;20145;43.118;25.694;2022-09-09T13:26:28;4.20;;;2.70;;
33844;SDS011;20145;43.118;25.694;2022-09-09T13:28:55;5.95;;;2.78;;
33844;SDS011;20145;43.118;25.694;2022-09-09T13:31:42;9.27;;;4.00;;
33844;SDS011;20145;43.118;25.694;2022-09-09T13:34:12;5.53;;;3.35;;
33844;SDS011;20145;43.118;25.694;2022-09-09T13:36:39;5.82;;;3.30;;
33844;SDS011;20145;43.118;25.694;2022-09-09T13:39:13;7.60;;;4.07;;
33844;SDS011;20145;43.118;25.694;2022-09-09T13:41:43;6.68;;;3.67;;
33844;SDS011;20145;43.118;25.694;2022-09-09T13:44:23;5.50;;;3.13;;
33844;SDS011;20145;43.118;25.694;2022-09-09T13:47:02;7.43;;;2.83;;
33844;SDS011;20145;43.118;25.694;2022-09-09T13:49:44;6.93;;;3.13;;
33844;SDS011;20145;43.118;25.694;2022-09-09T13:52:11;6.43;;;3.30;;
33844;SDS011;20145;43.118;25.694;2022-09-09T13:54:38;5.93;;;3.13;;
33844;SDS011;20145;43.118;25.694;2022-09-09T13:57:05;7.72;;;5.65;;
33844;SDS011;20145;43.118;25.694;2022-09-09T13:59:38;6.75;;;3.08;;
33844;SDS011;20145;43.118;25.694;2022-09-09T14:02:04;3.72;;;2.90;;
33844;SDS011;20145;43.118;25.694;2022-09-09T14:04:30;4.07;;;3.05;;
33844;SDS011;20145;43.118;25.694;2022-09-09T14:06:55;4.97;;;3.28;;
33844;SDS011;20145;43.118;25.694;2022-09-09T14:09:21;8.85;;;2.70;;
33844;SDS011;20145;43.118;25.694;2022-09-09T14:11:47;6.90;;;3.53;;
33844;SDS011;20145;43.118;25.694;2022-09-09T14:14:12;5.90;;;3.33;;
33844;SDS011;20145;43.118;25.694;2022-09-09T14:16:38;6.28;;;2.90;;
33844;SDS011;20145;43.118;25.694;2022-09-09T14:19:03;3.30;;;2.47;;
33844;SDS011;20145;43.118;25.694;2022-09-09T14:21:29;4.82;;;2.80;;
33844;SDS011;20145;43.118;25.694;2022-09-09T14:23:55;9.55;;;3.80;;
33844;SDS011;20145;43.118;25.694;2022-09-09T14:26:23;6.63;;;3.50;;
33844;SDS011;20145;43.118;25.694;2022-09-09T14:28:49;6.13;;;3.63;;
33844;SDS011;20145;43.118;25.694;2022-09-09T14:31:15;6.15;;;2.88;;
33844;SDS011;20145;43.118;25.694;2022-09-09T14:33:42;3.42;;;2.67;;
33844;SDS011;20145;43.118;25.694;2022-09-09T14:36:09;11.48;;;2.70;;
33844;SDS011;20145;43.118;25.694;2022-09-09T14:38:35;6.32;;;3.00;;
33844;SDS011;20145;43.118;25.694;2022-09-09T14:41:07;5.47;;;2.97;;
33844;SDS011;20145;43.118;25.694;2022-09-09T14:43:35;4.97;;;3.00;;
33844;SDS011;20145;43.118;25.694;2022-09-09T14:46:06;5.60;;;3.03;;
33844;SDS011;20145;43.118;25.694;2022-09-09T14:48:36;8.70;;;3.75;;
33844;SDS011;20145;43.118;25.694;2022-09-09T14:51:05;12.98;;;3.55;;
33844;SDS011;20145;43.118;25.694;2022-09-09T14:53:38;7.85;;;3.10;;
33844;SDS011;20145;43.118;25.694;2022-09-09T14:58:35;11.60;;;4.03;;
33844;SDS011;20145;43.118;25.694;2022-09-09T15:01:04;12.07;;;4.22;;
33844;SDS011;20145;43.118;25.694;2022-09-09T15:03:31;8.20;;;3.17;;
33844;SDS011;20145;43.118;25.694;2022-09-09T15:05:57;3.95;;;3.53;;
33844;SDS011;20145;43.118;25.694;2022-09-09T15:08:25;7.82;;;3.53;;
33844;SDS011;20145;43.118;25.694;2022-09-09T15:10:58;11.07;;;3.58;;
33844;SDS011;20145;43.118;25.694;2022-09-09T15:13:25;8.60;;;3.28;;
33844;SDS011;20145;43.118;25.694;2022-09-09T15:16:15;7.72;;;3.50;;
33844;SDS011;20145;43.118;25.694;2022-09-09T15:18:42;8.75;;;3.85;;
33844;SDS011;20145;43.118;25.694;2022-09-09T15:21:10;10.23;;;4.10;;
33844;SDS011;20145;43.118;25.694;2022-09-09T15:23:37;7.57;;;4.10;;
33844;SDS011;20145;43.118;25.694;2022-09-09T15:26:03;8.98;;;4.32;;
33844;SDS011;20145;43.118;25.694;2022-09-09T15:28:31;7.40;;;4.22;;
33844;SDS011;20145;43.118;25.694;2022-09-09T15:30:57;10.73;;;4.95;;
33844;SDS011;20145;43.118;25.694;2022-09-09T15:33:24;13.40;;;4.60;;
33844;SDS011;20145;43.118;25.694;2022-09-09T15:35:50;15.25;;;4.80;;
33844;SDS011;20145;43.118;25.694;2022-09-09T15:38:16;8.80;;;5.03;;
33844;SDS011;20145;43.118;25.694;2022-09-09T15:40:42;5.70;;;4.47;;
33844;SDS011;20145;43.118;25.694;2022-09-09T15:43:08;13.57;;;5.63;;
33844;SDS011;20145;43.118;25.694;2022-09-09T15:45:36;9.25;;;5.30;;
33844;SDS011;20145;43.118;25.694;2022-09-09T15:48:02;10.95;;;4.80;;
33844;SDS011;20145;43.118;25.694;2022-09-09T15:50:29;8.65;;;4.75;;
33844;SDS011;20145;43.118;25.694;2022-09-09T15:52:58;6.40;;;4.35;;
33844;SDS011;20145;43.118;25.694;2022-09-09T15:55:24;10.90;;;4.80;;
33844;SDS011;20145;43.118;25.694;2022-09-09T15:57:50;9.68;;;4.22;;
33844;SDS011;20145;43.118;25.694;2022-09-09T16:00:20;10.07;;;6.47;;
33844;SDS011;20145;43.118;25.694;2022-09-09T16:02:46;6.78;;;5.82;;
33844;SDS011;20145;43.118;25.694;2022-09-09T16:05:12;8.85;;;4.82;;
33844;SDS011;20145;43.118;25.694;2022-09-09T16:07:38;10.75;;;4.95;;
33844;SDS011;20145;43.118;25.694;2022-09-09T16:10:04;13.70;;;5.07;;
33844;SDS011;20145;43.118;25.694;2022-09-09T16:12:31;10.15;;;4.93;;
33844;SDS011;20145;43.118;25.694;2022-09-09T16:14:56;13.07;;;5.43;;
33844;SDS011;20145;43.118;25.694;2022-09-09T16:17:22;9.50;;;7.65;;
33844;SDS011;20145;43.118;25.694;2022-09-09T16:19:47;8.45;;;5.00;;
33844;SDS011;20145;43.118;25.694;2022-09-09T16:22:13;15.90;;;6.25;;
33844;SDS011;20145;43.118;25.694;2022-09-09T16:24:40;12.63;;;6.30;;
33844;SDS011;20145;43.118;25.694;2022-09-09T16:27:06;16.35;;;14.35;;
33844;SDS011;20145;43.118;25.694;2022-09-09T16:29:32;13.77;;;8.93;;
33844;SDS011;20145;43.118;25.694;2022-09-09T16:31:58;16.73;;;7.85;;
33844;SDS011;20145;43.118;25.694;2022-09-09T16:34:25;15.80;;;8.77;;
33844;SDS011;20145;43.118;25.694;2022-09-09T16:36:50;16.35;;;13.98;;
33844;SDS011;20145;43.118;25.694;2022-09-09T16:39:19;17.55;;;11.25;;
33844;SDS011;20145;43.118;25.694;2022-09-09T16:41:46;14.77;;;10.18;;
33844;SDS011;20145;43.118;25.694;2022-09-09T16:44:13;16.42;;;10.50;;
33844;SDS011;20145;43.118;25.694;2022-09-09T16:46:42;16.80;;;12.02;;
33844;SDS011;20145;43.118;25.694;2022-09-09T16:49:09;14.65;;;7.47;;
33844;SDS011;20145;43.118;25.694;2022-09-09T16:51:37;21.55;;;11.35;;
33844;SDS011;20145;43.118;25.694;2022-09-09T16:54:07;10.30;;;7.25;;
33844;SDS011;20145;43.118;25.694;2022-09-09T16:56:34;25.48;;;20.70;;
33844;SDS011;20145;43.118;25.694;2022-09-09T16:59:05;40.53;;;36.13;;
33844;SDS011;20145;43.118;25.694;2022-09-09T17:01:34;34.40;;;23.70;;
33844;SDS011;20145;43.118;25.694;2022-09-09T17:04:07;19.45;;;14.80;;
33844;SDS011;20145;43.118;25.694;2022-09-09T17:06:35;33.00;;;23.02;;
33844;SDS011;20145;43.118;25.694;2022-09-09T17:09:03;11.63;;;6.60;;
33844;SDS011;20145;43.118;25.694;2022-09-09T17:11:31;12.85;;;5.75;;
33844;SDS011;20145;43.118;25.694;2022-09-09T17:13:57;16.02;;;11.02;;
33844;SDS011;20145;43.118;25.694;2022-09-09T17:16:25;25.98;;;11.60;;
33844;SDS011;20145;43.118;25.694;2022-09-09T17:18:55;15.07;;;7.30;;
33844;SDS011;20145;43.118;25.694;2022-09-09T17:21:24;14.95;;;6.72;;
33844;SDS011;20145;43.118;25.694;2022-09-09T17:23:51;20.85;;;14.52;;
33844;SDS011;20145;43.118;25.694;2022-09-09T17:26:18;30.60;;;25.55;;
33844;SDS011;20145;43.118;25.694;2022-09-09T17:28:46;12.23;;;6.63;;
33844;SDS011;20145;43.118;25.694;2022-09-09T17:31:12;20.08;;;13.73;;
33844;SDS011;20145;43.118;25.694;2022-09-09T17:33:42;12.23;;;6.45;;
33844;SDS011;20145;43.118;25.694;2022-09-09T17:36:34;10.90;;;5.53;;